sensor_id;sensor_type;location;lat;lon;timestamp;temperature;humidity
22716;DHT22;11525;51.152;4.456;2023-12-07T00:00:22;3.30;99.90
22716;DHT22;11525;51.152;4.456;2023-12-07T00:02:53;3.40;99.90
22716;DHT22;11525;51.152;4.456;2023-12-07T00:05:25;3.40;99.90
22716;DHT22;11525;51.152;4.456;2023-12-07T00:07:51;3.40;99.90
22716;DHT22;11525;51.152;4.456;2023-12-07T00:10:16;3.60;99.90
22716;DHT22;11525;51.152;4.456;2023-12-07T00:12:45;3.70;99.90
22716;DHT22;11525;51.152;4.456;2023-12-07T00:15:11;3.60;99.90
22716;DHT22;11525;51.152;4.456;2023-12-07T00:17:40;3.50;99.90
22716;DHT22;11525;51.152;4.456;2023-12-07T00:20:06;3.50;99.90
22716;DHT22;11525;51.152;4.456;2023-12-07T00:22:32;3.60;99.90
22716;DHT22;11525;51.152;4.456;2023-12-07T00:24:58;3.50;99.90
22716;DHT22;11525;51.152;4.456;2023-12-07T00:27:24;3.60;99.90
22716;DHT22;11525;51.152;4.456;2023-12-07T00:29:50;3.60;99.90
22716;DHT22;11525;51.152;4.456;2023-12-07T00:32:18;3.80;99.90
22716;DHT22;11525;51.152;4.456;2023-12-07T00:34:45;4.00;99.90
22716;DHT22;11525;51.152;4.456;2023-12-07T00:37:14;4.00;99.90
22716;DHT22;11525;51.152;4.456;2023-12-07T00:39:41;4.10;99.90
22716;DHT22;11525;51.152;4.456;2023-12-07T00:42:07;4.00;99.90
22716;DHT22;11525;51.152;4.456;2023-12-07T00:44:33;4.10;99.90
22716;DHT22;11525;51.152;4.456;2023-12-07T00:46:59;4.10;99.90
22716;DHT22;11525;51.152;4.456;2023-12-07T00:49:47;4.10;99.90
22716;DHT22;11525;51.152;4.456;2023-12-07T00:52:22;4.30;99.90
22716;DHT22;11525;51.152;4.456;2023-12-07T00:54:48;4.20;99.90
22716;DHT22;11525;51.152;4.456;2023-12-07T00:57:17;4.00;99.90
22716;DHT22;11525;51.152;4.456;2023-12-07T00:59:43;4.00;99.90
22716;DHT22;11525;51.152;4.456;2023-12-07T01:02:21;4.00;99.90
22716;DHT22;11525;51.152;4.456;2023-12-07T01:04:56;4.10;99.90
22716;DHT22;11525;51.152;4.456;2023-12-07T01:07:22;4.10;99.90
22716;DHT22;11525;51.152;4.456;2023-12-07T01:09:50;4.10;99.90
22716;DHT22;11525;51.152;4.456;2023-12-07T01:12:23;4.00;99.90
22716;DHT22;11525;51.152;4.456;2023-12-07T01:14:52;4.10;99.90
22716;DHT22;11525;51.152;4.456;2023-12-07T01:17:33;4.10;99.90
22716;DHT22;11525;51.152;4.456;2023-12-07T01:20:07;4.20;99.90
22716;DHT22;11525;51.152;4.456;2023-12-07T01:22:41;4.30;99.90
22716;DHT22;11525;51.152;4.456;2023-12-07T01:25:08;4.30;99.90
22716;DHT22;11525;51.152;4.456;2023-12-07T01:27:34;4.30;99.90
22716;DHT22;11525;51.152;4.456;2023-12-07T01:30:05;4.30;99.90
22716;DHT22;11525;51.152;4.456;2023-12-07T01:32:31;4.20;99.90
22716;DHT22;11525;51.152;4.456;2023-12-07T01:35:00;4.20;99.90
22716;DHT22;11525;51.152;4.456;2023-12-07T01:37:29;4.30;99.90
22716;DHT22;11525;51.152;4.456;2023-12-07T01:39:58;4.30;99.90
22716;DHT22;11525;51.152;4.456;2023-12-07T01:42:24;4.40;99.90
22716;DHT22;11525;51.152;4.456;2023-12-07T01:44:50;4.30;99.90
22716;DHT22;11525;51.152;4.456;2023-12-07T01:47:31;4.30;99.90
22716;DHT22;11525;51.152;4.456;2023-12-07T01:50:36;4.20;99.90
22716;DHT22;11525;51.152;4.456;2023-12-07T01:53:23;4.20;99.90
22716;DHT22;11525;51.152;4.456;2023-12-07T01:56:02;4.20;99.90
22716;DHT22;11525;51.152;4.456;2023-12-07T01:58:39;4.10;99.90
22716;DHT22;11525;51.152;4.456;2023-12-07T02:01:14;4.00;99.90
22716;DHT22;11525;51.152;4.456;2023-12-07T02:03:42;4.00;99.90
22716;DHT22;11525;51.152;4.456;2023-12-07T02:06:17;3.90;99.90
22716;DHT22;11525;51.152;4.456;2023-12-07T02:09:00;4.00;99.90
22716;DHT22;11525;51.152;4.456;2023-12-07T02:14:23;4.00;99.90
22716;DHT22;11525;51.152;4.456;2023-12-07T02:16:51;4.00;99.90
22716;DHT22;11525;51.152;4.456;2023-12-07T02:22:17;4.20;99.90
22716;DHT22;11525;51.152;4.456;2023-12-07T02:27:41;4.00;99.90
22716;DHT22;11525;51.152;4.456;2023-12-07T02:30:11;4.00;99.90
22716;DHT22;11525;51.152;4.456;2023-12-07T02:32:42;4.10;99.90
22716;DHT22;11525;51.152;4.456;2023-12-07T02:35:10;4.20;99.90
22716;DHT22;11525;51.152;4.456;2023-12-07T02:38:06;4.20;99.90
22716;DHT22;11525;51.152;4.456;2023-12-07T02:40:33;4.20;99.90
22716;DHT22;11525;51.152;4.456;2023-12-07T02:43:00;4.20;99.90
22716;DHT22;11525;51.152;4.456;2023-12-07T02:45:27;4.20;99.90
22716;DHT22;11525;51.152;4.456;2023-12-07T02:47:53;4.30;99.90
22716;DHT22;11525;51.152;4.456;2023-12-07T02:50:20;4.30;99.90
22716;DHT22;11525;51.152;4.456;2023-12-07T02:52:51;4.30;99.90
22716;DHT22;11525;51.152;4.456;2023-12-07T02:55:17;4.20;99.90
22716;DHT22;11525;51.152;4.456;2023-12-07T02:57:46;4.20;99.90
22716;DHT22;11525;51.152;4.456;2023-12-07T03:00:12;4.20;99.90
22716;DHT22;11525;51.152;4.456;2023-12-07T03:02:40;4.20;99.90
22716;DHT22;11525;51.152;4.456;2023-12-07T03:05:29;4.20;99.90
22716;DHT22;11525;51.152;4.456;2023-12-07T03:08:03;4.30;99.90
22716;DHT22;11525;51.152;4.456;2023-12-07T03:10:29;4.30;99.90
22716;DHT22;11525;51.152;4.456;2023-12-07T03:12:58;4.30;99.90
22716;DHT22;11525;51.152;4.456;2023-12-07T03:15:24;4.30;99.90
22716;DHT22;11525;51.152;4.456;2023-12-07T03:17:50;4.30;99.90
22716;DHT22;11525;51.152;4.456;2023-12-07T03:20:18;4.30;99.90
22716;DHT22;11525;51.152;4.456;2023-12-07T03:22:44;4.20;99.90
22716;DHT22;11525;51.152;4.456;2023-12-07T03:25:10;4.10;99.90
22716;DHT22;11525;51.152;4.456;2023-12-07T03:27:36;4.20;99.90
22716;DHT22;11525;51.152;4.456;2023-12-07T03:30:02;4.20;99.90
22716;DHT22;11525;51.152;4.456;2023-12-07T03:32:28;4.20;99.90
22716;DHT22;11525;51.152;4.456;2023-12-07T03:34:54;4.10;99.90
22716;DHT22;11525;51.152;4.456;2023-12-07T03:37:23;4.30;99.90
22716;DHT22;11525;51.152;4.456;2023-12-07T03:39:49;4.10;99.90
22716;DHT22;11525;51.152;4.456;2023-12-07T03:42:18;4.10;99.90
22716;DHT22;11525;51.152;4.456;2023-12-07T03:44:46;4.00;99.90
22716;DHT22;11525;51.152;4.456;2023-12-07T03:47:15;3.90;99.90
22716;DHT22;11525;51.152;4.456;2023-12-07T03:49:41;3.80;99.90
22716;DHT22;11525;51.152;4.456;2023-12-07T03:52:09;3.80;99.90
22716;DHT22;11525;51.152;4.456;2023-12-07T03:54:35;4.00;99.90
22716;DHT22;11525;51.152;4.456;2023-12-07T03:57:07;4.10;99.90
22716;DHT22;11525;51.152;4.456;2023-12-07T03:59:45;4.20;99.90
22716;DHT22;11525;51.152;4.456;2023-12-07T04:02:19;4.10;99.90
22716;DHT22;11525;51.152;4.456;2023-12-07T04:04:44;4.10;99.90
22716;DHT22;11525;51.152;4.456;2023-12-07T04:07:10;4.20;99.90
22716;DHT22;11525;51.152;4.456;2023-12-07T04:09:36;4.30;99.90
22716;DHT22;11525;51.152;4.456;2023-12-07T04:12:02;4.30;99.90
22716;DHT22;11525;51.152;4.456;2023-12-07T04:14:31;4.30;99.90
22716;DHT22;11525;51.152;4.456;2023-12-07T04:16:56;4.10;99.90
22716;DHT22;11525;51.152;4.456;2023-12-07T04:19:22;4.20;99.90
22716;DHT22;11525;51.152;4.456;2023-12-07T04:21:48;4.20;99.90
22716;DHT22;11525;51.152;4.456;2023-12-07T04:24:28;4.10;99.90
22716;DHT22;11525;51.152;4.456;2023-12-07T04:26:57;4.00;99.90
22716;DHT22;11525;51.152;4.456;2023-12-07T04:29:25;3.80;99.90
22716;DHT22;11525;51.152;4.456;2023-12-07T04:32:00;3.60;99.90
22716;DHT22;11525;51.152;4.456;2023-12-07T04:34:27;3.50;99.90
22716;DHT22;11525;51.152;4.456;2023-12-07T04:37:03;3.50;99.90
22716;DHT22;11525;51.152;4.456;2023-12-07T04:39:35;3.70;99.90
22716;DHT22;11525;51.152;4.456;2023-12-07T04:42:01;3.80;99.90
22716;DHT22;11525;51.152;4.456;2023-12-07T04:44:27;3.60;99.90
22716;DHT22;11525;51.152;4.456;2023-12-07T04:46:57;3.60;99.90
22716;DHT22;11525;51.152;4.456;2023-12-07T04:49:30;3.70;99.90
22716;DHT22;11525;51.152;4.456;2023-12-07T04:51:58;3.70;99.90
22716;DHT22;11525;51.152;4.456;2023-12-07T04:54:24;3.70;99.90
22716;DHT22;11525;51.152;4.456;2023-12-07T04:57:01;3.80;99.90
22716;DHT22;11525;51.152;4.456;2023-12-07T04:59:27;3.90;99.90
22716;DHT22;11525;51.152;4.456;2023-12-07T05:01:53;3.80;99.90
22716;DHT22;11525;51.152;4.456;2023-12-07T05:04:22;4.10;99.90
22716;DHT22;11525;51.152;4.456;2023-12-07T05:06:48;3.90;99.90
22716;DHT22;11525;51.152;4.456;2023-12-07T05:09:13;3.80;99.90
22716;DHT22;11525;51.152;4.456;2023-12-07T05:11:44;3.80;99.90
22716;DHT22;11525;51.152;4.456;2023-12-07T05:14:11;3.90;99.90
22716;DHT22;11525;51.152;4.456;2023-12-07T05:16:37;4.10;99.90
22716;DHT22;11525;51.152;4.456;2023-12-07T05:19:02;4.00;99.90
22716;DHT22;11525;51.152;4.456;2023-12-07T05:21:28;3.90;99.90
22716;DHT22;11525;51.152;4.456;2023-12-07T05:23:54;3.80;99.90
22716;DHT22;11525;51.152;4.456;2023-12-07T05:26:20;3.80;99.90
22716;DHT22;11525;51.152;4.456;2023-12-07T05:28:57;4.00;99.90
22716;DHT22;11525;51.152;4.456;2023-12-07T05:31:23;4.00;99.90
22716;DHT22;11525;51.152;4.456;2023-12-07T05:33:54;3.80;99.90
22716;DHT22;11525;51.152;4.456;2023-12-07T05:36:20;3.80;99.90
22716;DHT22;11525;51.152;4.456;2023-12-07T05:38:49;3.90;99.90
22716;DHT22;11525;51.152;4.456;2023-12-07T05:41:15;4.10;99.90
22716;DHT22;11525;51.152;4.456;2023-12-07T05:43:43;4.10;99.90
22716;DHT22;11525;51.152;4.456;2023-12-07T05:46:09;4.10;99.90
22716;DHT22;11525;51.152;4.456;2023-12-07T05:48:38;4.10;99.90
22716;DHT22;11525;51.152;4.456;2023-12-07T05:51:14;4.20;99.90
22716;DHT22;11525;51.152;4.456;2023-12-07T05:53:43;4.20;99.90
22716;DHT22;11525;51.152;4.456;2023-12-07T05:56:11;4.40;99.90
22716;DHT22;11525;51.152;4.456;2023-12-07T05:58:40;4.30;99.90
22716;DHT22;11525;51.152;4.456;2023-12-07T06:01:06;4.20;99.90
22716;DHT22;11525;51.152;4.456;2023-12-07T06:03:42;4.00;99.90
22716;DHT22;11525;51.152;4.456;2023-12-07T06:06:08;3.80;99.90
22716;DHT22;11525;51.152;4.456;2023-12-07T06:08:37;3.80;99.90
22716;DHT22;11525;51.152;4.456;2023-12-07T06:11:03;3.90;99.90
22716;DHT22;11525;51.152;4.456;2023-12-07T06:13:33;3.80;99.90
22716;DHT22;11525;51.152;4.456;2023-12-07T06:15:59;3.90;99.90
22716;DHT22;11525;51.152;4.456;2023-12-07T06:18:26;3.70;99.90
22716;DHT22;11525;51.152;4.456;2023-12-07T06:20:53;3.70;99.90
22716;DHT22;11525;51.152;4.456;2023-12-07T06:23:26;3.80;99.90
22716;DHT22;11525;51.152;4.456;2023-12-07T06:25:52;3.70;99.90
22716;DHT22;11525;51.152;4.456;2023-12-07T06:28:17;3.70;99.90
22716;DHT22;11525;51.152;4.456;2023-12-07T06:30:43;3.70;99.90
22716;DHT22;11525;51.152;4.456;2023-12-07T06:33:10;3.90;99.90
22716;DHT22;11525;51.152;4.456;2023-12-07T06:35:36;3.90;99.90
22716;DHT22;11525;51.152;4.456;2023-12-07T06:38:08;3.90;99.90
22716;DHT22;11525;51.152;4.456;2023-12-07T06:40:39;3.90;99.90
22716;DHT22;11525;51.152;4.456;2023-12-07T06:43:05;4.00;99.90
22716;DHT22;11525;51.152;4.456;2023-12-07T06:45:34;3.80;99.90
22716;DHT22;11525;51.152;4.456;2023-12-07T06:48:09;3.80;99.90
22716;DHT22;11525;51.152;4.456;2023-12-07T06:50:35;3.90;99.90
22716;DHT22;11525;51.152;4.456;2023-12-07T06:53:22;4.00;99.90
22716;DHT22;11525;51.152;4.456;2023-12-07T06:55:50;4.10;99.90
22716;DHT22;11525;51.152;4.456;2023-12-07T06:58:22;3.90;99.90
22716;DHT22;11525;51.152;4.456;2023-12-07T07:00:51;3.80;99.90
22716;DHT22;11525;51.152;4.456;2023-12-07T07:03:17;3.70;99.90
22716;DHT22;11525;51.152;4.456;2023-12-07T07:05:43;3.60;99.90
22716;DHT22;11525;51.152;4.456;2023-12-07T07:08:09;3.70;99.90
22716;DHT22;11525;51.152;4.456;2023-12-07T07:10:37;3.60;99.90
22716;DHT22;11525;51.152;4.456;2023-12-07T07:13:03;3.60;99.90
22716;DHT22;11525;51.152;4.456;2023-12-07T07:15:31;3.60;99.90
22716;DHT22;11525;51.152;4.456;2023-12-07T07:17:57;4.00;99.90
22716;DHT22;11525;51.152;4.456;2023-12-07T07:20:23;5.10;99.90
22716;DHT22;11525;51.152;4.456;2023-12-07T07:22:49;5.70;99.90
22716;DHT22;11525;51.152;4.456;2023-12-07T07:25:15;5.30;99.90
22716;DHT22;11525;51.152;4.456;2023-12-07T07:27:48;4.90;99.90
22716;DHT22;11525;51.152;4.456;2023-12-07T07:30:14;4.40;99.90
22716;DHT22;11525;51.152;4.456;2023-12-07T07:32:40;4.10;99.90
22716;DHT22;11525;51.152;4.456;2023-12-07T07:35:06;4.20;99.90
22716;DHT22;11525;51.152;4.456;2023-12-07T07:37:33;4.00;99.90
22716;DHT22;11525;51.152;4.456;2023-12-07T07:40:02;3.80;99.90
22716;DHT22;11525;51.152;4.456;2023-12-07T07:42:35;3.70;99.90
22716;DHT22;11525;51.152;4.456;2023-12-07T07:45:07;3.80;99.90
22716;DHT22;11525;51.152;4.456;2023-12-07T07:47:33;3.50;99.90
22716;DHT22;11525;51.152;4.456;2023-12-07T07:49:59;3.50;99.90
22716;DHT22;11525;51.152;4.456;2023-12-07T07:52:33;3.90;99.90
22716;DHT22;11525;51.152;4.456;2023-12-07T07:55:00;4.10;99.90
22716;DHT22;11525;51.152;4.456;2023-12-07T07:57:26;4.00;99.90
22716;DHT22;11525;51.152;4.456;2023-12-07T08:00:01;3.90;99.90
22716;DHT22;11525;51.152;4.456;2023-12-07T08:02:28;3.90;99.90
22716;DHT22;11525;51.152;4.456;2023-12-07T08:04:54;3.80;99.90
22716;DHT22;11525;51.152;4.456;2023-12-07T08:07:20;3.70;99.90
22716;DHT22;11525;51.152;4.456;2023-12-07T08:09:46;3.70;99.90
22716;DHT22;11525;51.152;4.456;2023-12-07T08:12:17;3.50;99.90
22716;DHT22;11525;51.152;4.456;2023-12-07T08:14:43;3.50;99.90
22716;DHT22;11525;51.152;4.456;2023-12-07T08:17:10;3.50;99.90
22716;DHT22;11525;51.152;4.456;2023-12-07T08:19:37;3.60;99.90
22716;DHT22;11525;51.152;4.456;2023-12-07T08:22:11;3.60;99.90
22716;DHT22;11525;51.152;4.456;2023-12-07T08:24:39;3.70;99.90
22716;DHT22;11525;51.152;4.456;2023-12-07T08:27:05;3.80;99.90
22716;DHT22;11525;51.152;4.456;2023-12-07T08:29:36;3.70;99.90
22716;DHT22;11525;51.152;4.456;2023-12-07T08:32:03;3.70;99.90
22716;DHT22;11525;51.152;4.456;2023-12-07T08:34:29;4.00;99.90
22716;DHT22;11525;51.152;4.456;2023-12-07T08:36:55;4.30;99.90
22716;DHT22;11525;51.152;4.456;2023-12-07T08:39:21;4.60;99.90
22716;DHT22;11525;51.152;4.456;2023-12-07T08:41:51;4.80;99.90
22716;DHT22;11525;51.152;4.456;2023-12-07T08:44:17;4.70;99.90
22716;DHT22;11525;51.152;4.456;2023-12-07T08:46:43;4.70;99.90
22716;DHT22;11525;51.152;4.456;2023-12-07T08:49:13;4.50;99.90
22716;DHT22;11525;51.152;4.456;2023-12-07T08:51:48;4.30;99.90
22716;DHT22;11525;51.152;4.456;2023-12-07T08:54:30;5.00;99.90
22716;DHT22;11525;51.152;4.456;2023-12-07T08:57:08;5.50;99.90
22716;DHT22;11525;51.152;4.456;2023-12-07T08:59:34;6.20;99.90
22716;DHT22;11525;51.152;4.456;2023-12-07T09:02:02;6.60;99.90
22716;DHT22;11525;51.152;4.456;2023-12-07T09:04:40;6.70;99.90
22716;DHT22;11525;51.152;4.456;2023-12-07T09:07:06;7.00;99.90
22716;DHT22;11525;51.152;4.456;2023-12-07T09:09:35;7.30;99.90
22716;DHT22;11525;51.152;4.456;2023-12-07T09:12:01;7.30;99.90
22716;DHT22;11525;51.152;4.456;2023-12-07T09:14:42;7.00;99.90
22716;DHT22;11525;51.152;4.456;2023-12-07T09:17:11;6.90;99.90
22716;DHT22;11525;51.152;4.456;2023-12-07T09:19:44;6.10;99.90
22716;DHT22;11525;51.152;4.456;2023-12-07T09:22:13;5.70;99.90
22716;DHT22;11525;51.152;4.456;2023-12-07T09:24:41;5.50;99.90
22716;DHT22;11525;51.152;4.456;2023-12-07T09:27:13;5.30;99.90
22716;DHT22;11525;51.152;4.456;2023-12-07T09:29:48;5.20;99.90
22716;DHT22;11525;51.152;4.456;2023-12-07T09:32:17;4.90;99.90
22716;DHT22;11525;51.152;4.456;2023-12-07T09:34:52;4.80;99.90
22716;DHT22;11525;51.152;4.456;2023-12-07T09:37:27;4.60;99.90
22716;DHT22;11525;51.152;4.456;2023-12-07T09:39:53;4.60;99.90
22716;DHT22;11525;51.152;4.456;2023-12-07T09:42:19;4.60;99.90
22716;DHT22;11525;51.152;4.456;2023-12-07T09:44:47;4.80;99.90
22716;DHT22;11525;51.152;4.456;2023-12-07T09:47:19;5.30;99.90
22716;DHT22;11525;51.152;4.456;2023-12-07T09:49:48;5.20;99.90
22716;DHT22;11525;51.152;4.456;2023-12-07T09:52:21;5.30;99.90
22716;DHT22;11525;51.152;4.456;2023-12-07T09:54:49;5.30;99.90
22716;DHT22;11525;51.152;4.456;2023-12-07T09:57:19;5.60;99.90
22716;DHT22;11525;51.152;4.456;2023-12-07T09:59:48;5.50;99.90
22716;DHT22;11525;51.152;4.456;2023-12-07T10:02:14;5.60;99.90
22716;DHT22;11525;51.152;4.456;2023-12-07T10:04:40;5.90;99.90
22716;DHT22;11525;51.152;4.456;2023-12-07T10:07:05;6.50;99.90
22716;DHT22;11525;51.152;4.456;2023-12-07T10:09:43;6.90;99.90
22716;DHT22;11525;51.152;4.456;2023-12-07T10:12:12;6.90;99.90
22716;DHT22;11525;51.152;4.456;2023-12-07T10:14:38;6.60;99.90
22716;DHT22;11525;51.152;4.456;2023-12-07T10:17:04;6.30;99.90
22716;DHT22;11525;51.152;4.456;2023-12-07T10:19:31;6.30;99.90
22716;DHT22;11525;51.152;4.456;2023-12-07T10:21:59;6.80;99.90
22716;DHT22;11525;51.152;4.456;2023-12-07T10:24:28;7.50;99.90
22716;DHT22;11525;51.152;4.456;2023-12-07T10:26:56;8.50;99.90
22716;DHT22;11525;51.152;4.456;2023-12-07T10:29:22;8.50;99.90
22716;DHT22;11525;51.152;4.456;2023-12-07T10:31:49;8.40;99.90
22716;DHT22;11525;51.152;4.456;2023-12-07T10:34:18;7.60;99.90
22716;DHT22;11525;51.152;4.456;2023-12-07T10:36:49;7.00;99.90
22716;DHT22;11525;51.152;4.456;2023-12-07T10:39:18;6.70;99.90
22716;DHT22;11525;51.152;4.456;2023-12-07T10:41:47;6.80;99.90
22716;DHT22;11525;51.152;4.456;2023-12-07T10:44:14;6.80;99.90
22716;DHT22;11525;51.152;4.456;2023-12-07T10:46:42;6.20;99.90
22716;DHT22;11525;51.152;4.456;2023-12-07T10:49:19;6.20;99.90
22716;DHT22;11525;51.152;4.456;2023-12-07T10:52:00;6.00;99.90
22716;DHT22;11525;51.152;4.456;2023-12-07T10:54:35;6.20;99.90
22716;DHT22;11525;51.152;4.456;2023-12-07T10:57:06;6.00;99.90
22716;DHT22;11525;51.152;4.456;2023-12-07T10:59:35;6.10;99.90
22716;DHT22;11525;51.152;4.456;2023-12-07T11:02:01;6.00;99.90
22716;DHT22;11525;51.152;4.456;2023-12-07T11:04:29;6.20;99.90
22716;DHT22;11525;51.152;4.456;2023-12-07T11:07:04;6.20;99.90
22716;DHT22;11525;51.152;4.456;2023-12-07T11:09:36;6.40;99.90
22716;DHT22;11525;51.152;4.456;2023-12-07T11:13:18;6.10;99.90
22716;DHT22;11525;51.152;4.456;2023-12-07T11:15:17;5.90;99.90
22716;DHT22;11525;51.152;4.456;2023-12-07T11:17:54;6.80;99.90
22716;DHT22;11525;51.152;4.456;2023-12-07T11:20:54;6.80;99.90
22716;DHT22;11525;51.152;4.456;2023-12-07T11:23:20;6.70;99.90
22716;DHT22;11525;51.152;4.456;2023-12-07T11:25:52;6.30;99.90
22716;DHT22;11525;51.152;4.456;2023-12-07T11:28:33;6.10;99.90
22716;DHT22;11525;51.152;4.456;2023-12-07T11:31:00;6.10;99.90
22716;DHT22;11525;51.152;4.456;2023-12-07T11:33:32;6.20;99.90
22716;DHT22;11525;51.152;4.456;2023-12-07T11:38:30;6.30;99.90
22716;DHT22;11525;51.152;4.456;2023-12-07T11:41:00;6.00;99.90
22716;DHT22;11525;51.152;4.456;2023-12-07T11:46:12;6.20;99.90
22716;DHT22;11525;51.152;4.456;2023-12-07T11:48:46;6.10;99.90
22716;DHT22;11525;51.152;4.456;2023-12-07T11:51:13;6.30;99.90
22716;DHT22;11525;51.152;4.456;2023-12-07T11:53:45;6.50;99.90
22716;DHT22;11525;51.152;4.456;2023-12-07T11:56:17;6.70;99.90
22716;DHT22;11525;51.152;4.456;2023-12-07T11:58:46;6.80;99.90
22716;DHT22;11525;51.152;4.456;2023-12-07T12:01:15;6.50;99.90
22716;DHT22;11525;51.152;4.456;2023-12-07T12:03:48;6.60;99.90
22716;DHT22;11525;51.152;4.456;2023-12-07T12:09:20;6.60;99.90
22716;DHT22;11525;51.152;4.456;2023-12-07T12:11:50;6.50;99.90
22716;DHT22;11525;51.152;4.456;2023-12-07T12:17:32;6.30;99.90
22716;DHT22;11525;51.152;4.456;2023-12-07T12:20:04;6.10;99.90
22716;DHT22;11525;51.152;4.456;2023-12-07T12:22:49;6.20;99.90
22716;DHT22;11525;51.152;4.456;2023-12-07T12:25:15;6.10;99.90
22716;DHT22;11525;51.152;4.456;2023-12-07T12:27:52;6.30;99.90
22716;DHT22;11525;51.152;4.456;2023-12-07T12:30:21;6.30;99.90
22716;DHT22;11525;51.152;4.456;2023-12-07T12:32:51;6.30;99.90
22716;DHT22;11525;51.152;4.456;2023-12-07T12:35:37;6.50;99.90
22716;DHT22;11525;51.152;4.456;2023-12-07T12:38:13;6.60;99.90
22716;DHT22;11525;51.152;4.456;2023-12-07T12:40:51;6.50;99.90
22716;DHT22;11525;51.152;4.456;2023-12-07T12:43:19;6.60;99.90
22716;DHT22;11525;51.152;4.456;2023-12-07T12:45:47;6.70;99.90
22716;DHT22;11525;51.152;4.456;2023-12-07T12:48:13;6.60;99.90
22716;DHT22;11525;51.152;4.456;2023-12-07T12:50:45;6.70;99.90
22716;DHT22;11525;51.152;4.456;2023-12-07T12:53:17;6.70;99.90
22716;DHT22;11525;51.152;4.456;2023-12-07T12:56:22;6.60;99.90
22716;DHT22;11525;51.152;4.456;2023-12-07T12:58:51;6.60;99.90
22716;DHT22;11525;51.152;4.456;2023-12-07T13:01:22;6.50;99.90
22716;DHT22;11525;51.152;4.456;2023-12-07T13:03:58;6.50;99.90
22716;DHT22;11525;51.152;4.456;2023-12-07T13:06:28;6.50;99.90
22716;DHT22;11525;51.152;4.456;2023-12-07T13:08:54;6.40;99.90
22716;DHT22;11525;51.152;4.456;2023-12-07T13:11:20;6.60;99.90
22716;DHT22;11525;51.152;4.456;2023-12-07T13:13:51;6.40;99.90
22716;DHT22;11525;51.152;4.456;2023-12-07T13:16:17;6.20;99.90
22716;DHT22;11525;51.152;4.456;2023-12-07T13:18:46;6.20;99.90
22716;DHT22;11525;51.152;4.456;2023-12-07T13:21:12;6.40;99.90
22716;DHT22;11525;51.152;4.456;2023-12-07T13:23:40;6.40;99.90
22716;DHT22;11525;51.152;4.456;2023-12-07T13:26:06;6.50;99.90
22716;DHT22;11525;51.152;4.456;2023-12-07T13:28:35;6.50;99.90
22716;DHT22;11525;51.152;4.456;2023-12-07T13:31:01;6.40;99.90
22716;DHT22;11525;51.152;4.456;2023-12-07T13:33:27;6.40;99.90
22716;DHT22;11525;51.152;4.456;2023-12-07T13:35:56;6.30;99.90
22716;DHT22;11525;51.152;4.456;2023-12-07T13:38:27;6.20;99.90
22716;DHT22;11525;51.152;4.456;2023-12-07T13:40:56;6.20;99.90
22716;DHT22;11525;51.152;4.456;2023-12-07T13:43:22;6.20;99.90
22716;DHT22;11525;51.152;4.456;2023-12-07T13:45:50;6.10;99.90
22716;DHT22;11525;51.152;4.456;2023-12-07T13:48:19;6.10;99.90
22716;DHT22;11525;51.152;4.456;2023-12-07T13:50:45;6.20;99.90
22716;DHT22;11525;51.152;4.456;2023-12-07T13:53:14;6.20;99.90
22716;DHT22;11525;51.152;4.456;2023-12-07T13:55:45;6.20;99.90
22716;DHT22;11525;51.152;4.456;2023-12-07T13:58:21;6.30;99.90
22716;DHT22;11525;51.152;4.456;2023-12-07T14:00:47;6.20;99.90
22716;DHT22;11525;51.152;4.456;2023-12-07T14:03:16;6.20;99.90
22716;DHT22;11525;51.152;4.456;2023-12-07T14:05:51;6.40;99.90
22716;DHT22;11525;51.152;4.456;2023-12-07T14:08:20;6.30;99.90
22716;DHT22;11525;51.152;4.456;2023-12-07T14:10:56;6.20;99.90
22716;DHT22;11525;51.152;4.456;2023-12-07T14:13:54;6.00;99.90
22716;DHT22;11525;51.152;4.456;2023-12-07T14:16:28;6.10;99.90
22716;DHT22;11525;51.152;4.456;2023-12-07T14:19:27;6.10;99.90
22716;DHT22;11525;51.152;4.456;2023-12-07T14:22:22;6.20;99.90
22716;DHT22;11525;51.152;4.456;2023-12-07T14:24:59;6.30;99.90
22716;DHT22;11525;51.152;4.456;2023-12-07T14:27:39;6.10;99.90
22716;DHT22;11525;51.152;4.456;2023-12-07T14:33:29;5.80;99.90
22716;DHT22;11525;51.152;4.456;2023-12-07T14:36:18;5.80;99.90
22716;DHT22;11525;51.152;4.456;2023-12-07T14:39:12;5.70;99.90
22716;DHT22;11525;51.152;4.456;2023-12-07T14:42:02;5.60;99.90
22716;DHT22;11525;51.152;4.456;2023-12-07T14:47:52;5.90;99.90
22716;DHT22;11525;51.152;4.456;2023-12-07T14:50:25;5.80;99.90
22716;DHT22;11525;51.152;4.456;2023-12-07T14:52:57;5.80;99.90
22716;DHT22;11525;51.152;4.456;2023-12-07T14:55:33;5.90;99.90
22716;DHT22;11525;51.152;4.456;2023-12-07T14:58:01;5.90;99.90
22716;DHT22;11525;51.152;4.456;2023-12-07T15:00:30;6.00;99.90
22716;DHT22;11525;51.152;4.456;2023-12-07T15:03:16;6.10;99.90
22716;DHT22;11525;51.152;4.456;2023-12-07T15:05:50;5.90;99.90
22716;DHT22;11525;51.152;4.456;2023-12-07T15:08:18;5.90;99.90
22716;DHT22;11525;51.152;4.456;2023-12-07T15:10:44;5.60;99.90
22716;DHT22;11525;51.152;4.456;2023-12-07T15:13:10;5.60;99.90
22716;DHT22;11525;51.152;4.456;2023-12-07T15:15:36;5.40;99.90
22716;DHT22;11525;51.152;4.456;2023-12-07T15:18:02;5.50;99.90
22716;DHT22;11525;51.152;4.456;2023-12-07T15:20:28;5.50;99.90
22716;DHT22;11525;51.152;4.456;2023-12-07T15:22:57;5.40;99.90
22716;DHT22;11525;51.152;4.456;2023-12-07T15:25:22;5.50;99.90
22716;DHT22;11525;51.152;4.456;2023-12-07T15:27:48;5.50;99.90
22716;DHT22;11525;51.152;4.456;2023-12-07T15:30:14;5.40;99.90
22716;DHT22;11525;51.152;4.456;2023-12-07T15:32:40;5.40;99.90
22716;DHT22;11525;51.152;4.456;2023-12-07T15:35:07;5.40;99.90
22716;DHT22;11525;51.152;4.456;2023-12-07T15:37:33;5.30;99.90
22716;DHT22;11525;51.152;4.456;2023-12-07T15:39:59;5.40;99.90
22716;DHT22;11525;51.152;4.456;2023-12-07T15:42:25;5.30;99.90
22716;DHT22;11525;51.152;4.456;2023-12-07T15:44:51;5.30;99.90
22716;DHT22;11525;51.152;4.456;2023-12-07T15:47:16;5.20;99.90
22716;DHT22;11525;51.152;4.456;2023-12-07T15:49:43;5.20;99.90
22716;DHT22;11525;51.152;4.456;2023-12-07T15:52:09;5.10;99.90
22716;DHT22;11525;51.152;4.456;2023-12-07T15:54:35;5.20;99.90
22716;DHT22;11525;51.152;4.456;2023-12-07T15:57:01;5.30;99.90
22716;DHT22;11525;51.152;4.456;2023-12-07T15:59:26;5.20;99.90
22716;DHT22;11525;51.152;4.456;2023-12-07T16:01:52;5.30;99.90
22716;DHT22;11525;51.152;4.456;2023-12-07T16:04:18;5.60;99.90
22716;DHT22;11525;51.152;4.456;2023-12-07T16:06:44;6.00;99.90
22716;DHT22;11525;51.152;4.456;2023-12-07T16:09:10;5.80;99.90
22716;DHT22;11525;51.152;4.456;2023-12-07T16:11:36;5.70;99.90
22716;DHT22;11525;51.152;4.456;2023-12-07T16:14:02;5.50;99.90
22716;DHT22;11525;51.152;4.456;2023-12-07T16:16:28;5.40;99.90
22716;DHT22;11525;51.152;4.456;2023-12-07T16:18:54;5.40;99.90
22716;DHT22;11525;51.152;4.456;2023-12-07T16:21:20;5.30;99.90
22716;DHT22;11525;51.152;4.456;2023-12-07T16:23:48;5.30;99.90
22716;DHT22;11525;51.152;4.456;2023-12-07T16:26:14;5.30;99.90
22716;DHT22;11525;51.152;4.456;2023-12-07T16:28:40;5.20;99.90